sensor_id;sensor_type;location;lat;lon;timestamp;pressure;altitude;pressure_sealevel;temperature;humidity
37368;BME280;23240;43.210;27.910;2023-06-14T00:00:30;100629.38;;;19.00;100.00
37368;BME280;23240;43.210;27.910;2023-06-14T00:02:56;100620.53;;;19.06;100.00
37368;BME280;23240;43.210;27.910;2023-06-14T00:05:22;100635.25;;;19.12;100.00
37368;BME280;23240;43.210;27.910;2023-06-14T00:07:48;100634.41;;;19.11;100.00
37368;BME280;23240;43.210;27.910;2023-06-14T00:10:14;100626.75;;;19.15;100.00
37368;BME280;23240;43.210;27.910;2023-06-14T00:12:40;100624.03;;;19.15;100.00
37368;BME280;23240;43.210;27.910;2023-06-14T00:15:06;100624.31;;;19.20;100.00
37368;BME280;23240;43.210;27.910;2023-06-14T00:17:32;100616.16;;;19.20;100.00
37368;BME280;23240;43.210;27.910;2023-06-14T00:19:57;100613.06;;;19.23;100.00
37368;BME280;23240;43.210;27.910;2023-06-14T00:22:23;100613.91;;;19.23;100.00
37368;BME280;23240;43.210;27.910;2023-06-14T00:24:50;100622.25;;;19.22;100.00
37368;BME280;23240;43.210;27.910;2023-06-14T00:27:15;100618.13;;;19.11;100.00
37368;BME280;23240;43.210;27.910;2023-06-14T00:29:40;100612.56;;;19.05;100.00
37368;BME280;23240;43.210;27.910;2023-06-14T00:32:06;100618.94;;;19.12;100.00
37368;BME280;23240;43.210;27.910;2023-06-14T00:34:31;100617.84;;;19.21;100.00
37368;BME280;23240;43.210;27.910;2023-06-14T00:36:56;100621.66;;;19.12;100.00
37368;BME280;23240;43.210;27.910;2023-06-14T00:39:22;100619.94;;;18.96;100.00
37368;BME280;23240;43.210;27.910;2023-06-14T00:41:47;100629.00;;;18.88;100.00
37368;BME280;23240;43.210;27.910;2023-06-14T00:44:13;100639.00;;;18.88;100.00
37368;BME280;23240;43.210;27.910;2023-06-14T00:46:40;100639.84;;;18.88;100.00
37368;BME280;23240;43.210;27.910;2023-06-14T00:49:05;100643.09;;;18.84;100.00
37368;BME280;23240;43.210;27.910;2023-06-14T00:51:31;100643.94;;;18.84;100.00
37368;BME280;23240;43.210;27.910;2023-06-14T00:53:56;100647.03;;;18.81;100.00
37368;BME280;23240;43.210;27.910;2023-06-14T00:56:22;100640.63;;;18.74;100.00
37368;BME280;23240;43.210;27.910;2023-06-14T00:58:48;100643.44;;;18.58;100.00
37368;BME280;23240;43.210;27.910;2023-06-14T01:01:14;100634.91;;;18.61;100.00
37368;BME280;23240;43.210;27.910;2023-06-14T01:03:40;100642.94;;;18.54;100.00
37368;BME280;23240;43.210;27.910;2023-06-14T01:06:20;100638.56;;;18.53;100.00
37368;BME280;23240;43.210;27.910;2023-06-14T01:08:57;100636.91;;;18.44;100.00
37368;BME280;23240;43.210;27.910;2023-06-14T01:11:26;100640.81;;;18.41;100.00
37368;BME280;23240;43.210;27.910;2023-06-14T01:13:53;100637.44;;;18.39;100.00
37368;BME280;23240;43.210;27.910;2023-06-14T01:16:21;100637.25;;;18.41;100.00
37368;BME280;23240;43.210;27.910;2023-06-14T01:18:46;100631.38;;;18.37;100.00
37368;BME280;23240;43.210;27.910;2023-06-14T01:21:20;100633.34;;;18.43;100.00
37368;BME280;23240;43.210;27.910;2023-06-14T01:23:45;100636.41;;;18.40;100.00
37368;BME280;23240;43.210;27.910;2023-06-14T01:26:13;100634.09;;;18.37;100.00
37368;BME280;23240;43.210;27.910;2023-06-14T01:28:41;100634.72;;;18.39;100.00
37368;BME280;23240;43.210;27.910;2023-06-14T01:31:06;100633.41;;;18.35;100.00
37368;BME280;23240;43.210;27.910;2023-06-14T01:33:32;100638.84;;;18.27;100.00
37368;BME280;23240;43.210;27.910;2023-06-14T01:35:58;100636.34;;;18.26;100.00
37368;BME280;23240;43.210;27.910;2023-06-14T01:38:24;100635.72;;;18.15;100.00
37368;BME280;23240;43.210;27.910;2023-06-14T01:40:50;100632.00;;;18.08;100.00
37368;BME280;23240;43.210;27.910;2023-06-14T01:43:16;100631.22;;;18.00;100.00
37368;BME280;23240;43.210;27.910;2023-06-14T01:45:43;100632.91;;;18.01;100.00
37368;BME280;23240;43.210;27.910;2023-06-14T01:48:09;100634.41;;;18.03;100.00
37368;BME280;23240;43.210;27.910;2023-06-14T01:50:35;100633.75;;;18.01;100.00
37368;BME280;23240;43.210;27.910;2023-06-14T01:53:00;100628.50;;;18.00;100.00
37368;BME280;23240;43.210;27.910;2023-06-14T01:55:25;100637.50;;;17.92;100.00
37368;BME280;23240;43.210;27.910;2023-06-14T01:57:51;100630.91;;;17.94;100.00
37368;BME280;23240;43.210;27.910;2023-06-14T02:00:16;100636.53;;;17.85;100.00
37368;BME280;23240;43.210;27.910;2023-06-14T02:02:43;100636.88;;;17.82;100.00
37368;BME280;23240;43.210;27.910;2023-06-14T02:05:08;100634.47;;;17.87;100.00
37368;BME280;23240;43.210;27.910;2023-06-14T02:07:34;100640.09;;;17.77;100.00
37368;BME280;23240;43.210;27.910;2023-06-14T02:09:59;100630.66;;;17.65;100.00
37368;BME280;23240;43.210;27.910;2023-06-14T02:12:24;100636.41;;;17.62;100.00
37368;BME280;23240;43.210;27.910;2023-06-14T02:14:50;100637.44;;;17.53;100.00
37368;BME280;23240;43.210;27.910;2023-06-14T02:17:15;100643.88;;;17.52;100.00
37368;BME280;23240;43.210;27.910;2023-06-14T02:19:41;100649.94;;;17.54;100.00
37368;BME280;23240;43.210;27.910;2023-06-14T02:22:07;100637.75;;;17.50;100.00
37368;BME280;23240;43.210;27.910;2023-06-14T02:24:32;100638.97;;;17.47;100.00
37368;BME280;23240;43.210;27.910;2023-06-14T02:26:58;100645.22;;;17.47;100.00
37368;BME280;23240;43.210;27.910;2023-06-14T02:29:23;100648.28;;;17.44;100.00
37368;BME280;23240;43.210;27.910;2023-06-14T02:31:48;100651.50;;;17.48;100.00
37368;BME280;23240;43.210;27.910;2023-06-14T02:34:14;100660.44;;;17.48;100.00
37368;BME280;23240;43.210;27.910;2023-06-14T02:36:42;100659.78;;;17.46;100.00
37368;BME280;23240;43.210;27.910;2023-06-14T02:39:07;100657.25;;;17.45;100.00
37368;BME280;23240;43.210;27.910;2023-06-14T02:41:34;100665.69;;;17.50;100.00
37368;BME280;23240;43.210;27.910;2023-06-14T02:43:59;100658.09;;;17.45;100.00
37368;BME280;23240;43.210;27.910;2023-06-14T02:46:25;100660.63;;;17.47;100.00
37368;BME280;23240;43.210;27.910;2023-06-14T02:48:50;100662.31;;;17.48;100.00
37368;BME280;23240;43.210;27.910;2023-06-14T02:51:15;100658.09;;;17.45;100.00
37368;BME280;23240;43.210;27.910;2023-06-14T02:53:41;100662.50;;;17.38;100.00
37368;BME280;23240;43.210;27.910;2023-06-14T02:56:06;100661.47;;;17.39;100.00
37368;BME280;23240;43.210;27.910;2023-06-14T02:58:31;100662.16;;;17.41;100.00
37368;BME280;23240;43.210;27.910;2023-06-14T03:00:58;100657.75;;;17.48;100.00
37368;BME280;23240;43.210;27.910;2023-06-14T03:03:28;100664.84;;;17.50;100.00
37368;BME280;23240;43.210;27.910;2023-06-14T03:05:54;100670.25;;;17.50;100.00
37368;BME280;23240;43.210;27.910;2023-06-14T03:08:19;100670.25;;;17.50;100.00
37368;BME280;23240;43.210;27.910;2023-06-14T03:10:48;100671.63;;;17.54;100.00
37368;BME280;23240;43.210;27.910;2023-06-14T03:13:14;100666.88;;;17.56;100.00
37368;BME280;23240;43.210;27.910;2023-06-14T03:15:41;100666.84;;;17.64;100.00
37368;BME280;23240;43.210;27.910;2023-06-14T03:18:09;100666.84;;;17.64;100.00
37368;BME280;23240;43.210;27.910;2023-06-14T03:20:35;100672.13;;;17.65;100.00
37368;BME280;23240;43.210;27.910;2023-06-14T03:23:01;100679.53;;;17.71;100.00
37368;BME280;23240;43.210;27.910;2023-06-14T03:25:27;100678.53;;;17.81;100.00
37368;BME280;23240;43.210;27.910;2023-06-14T03:27:54;100675.63;;;17.82;100.00
37368;BME280;23240;43.210;27.910;2023-06-14T03:30:20;100672.09;;;17.82;100.00
37368;BME280;23240;43.210;27.910;2023-06-14T03:32:45;100675.31;;;17.85;100.00
37368;BME280;23240;43.210;27.910;2023-06-14T03:35:10;100677.13;;;17.93;100.00
37368;BME280;23240;43.210;27.910;2023-06-14T03:37:42;100672.72;;;17.92;100.00
37368;BME280;23240;43.210;27.910;2023-06-14T03:40:07;100670.16;;;17.98;100.00
37368;BME280;23240;43.210;27.910;2023-06-14T03:42:32;100674.22;;;18.03;100.00
37368;BME280;23240;43.210;27.910;2023-06-14T03:44:58;100679.94;;;18.08;100.00
37368;BME280;23240;43.210;27.910;2023-06-14T03:47:23;100676.91;;;18.11;100.00
37368;BME280;23240;43.210;27.910;2023-06-14T03:49:48;100676.41;;;18.07;100.00
37368;BME280;23240;43.210;27.910;2023-06-14T03:52:14;100674.91;;;18.05;100.00
37368;BME280;23240;43.210;27.910;2023-06-14T03:54:41;100688.78;;;18.02;100.00
37368;BME280;23240;43.210;27.910;2023-06-14T03:57:08;100683.19;;;18.03;100.00
37368;BME280;23240;43.210;27.910;2023-06-14T03:59:33;100674.69;;;18.14;100.00
37368;BME280;23240;43.210;27.910;2023-06-14T04:01:58;100684.31;;;18.17;100.00
37368;BME280;23240;43.210;27.910;2023-06-14T04:04:24;100681.59;;;18.17;100.00
37368;BME280;23240;43.210;27.910;2023-06-14T04:06:54;100683.97;;;18.20;100.00
37368;BME280;23240;43.210;27.910;2023-06-14T04:09:19;100684.94;;;18.27;100.00
37368;BME280;23240;43.210;27.910;2023-06-14T04:11:44;100685.81;;;18.28;100.00
37368;BME280;23240;43.210;27.910;2023-06-14T04:14:09;100682.41;;;18.26;100.00
37368;BME280;23240;43.210;27.910;2023-06-14T04:16:35;100685.63;;;18.29;100.00
37368;BME280;23240;43.210;27.910;2023-06-14T04:19:00;100688.97;;;18.39;100.00
37368;BME280;23240;43.210;27.910;2023-06-14T04:21:25;100699.81;;;18.39;100.00
37368;BME280;23240;43.210;27.910;2023-06-14T04:23:52;100701.81;;;18.45;100.00
37368;BME280;23240;43.210;27.910;2023-06-14T04:26:20;100692.78;;;18.84;100.00
37368;BME280;23240;43.210;27.910;2023-06-14T04:28:46;100687.44;;;18.99;100.00
37368;BME280;23240;43.210;27.910;2023-06-14T04:31:12;100689.03;;;19.31;100.00
37368;BME280;23240;43.210;27.910;2023-06-14T04:33:37;100699.72;;;20.15;100.00
37368;BME280;23240;43.210;27.910;2023-06-14T04:36:10;100698.03;;;21.01;100.00
37368;BME280;23240;43.210;27.910;2023-06-14T04:38:39;100697.56;;;21.34;100.00
37368;BME280;23240;43.210;27.910;2023-06-14T04:41:04;100697.28;;;22.13;100.00
37368;BME280;23240;43.210;27.910;2023-06-14T04:43:30;100713.41;;;22.55;100.00
37368;BME280;23240;43.210;27.910;2023-06-14T04:45:56;100714.09;;;22.71;100.00
37368;BME280;23240;43.210;27.910;2023-06-14T04:48:22;100712.72;;;23.01;100.00
37368;BME280;23240;43.210;27.910;2023-06-14T04:50:48;100725.06;;;22.84;100.00
37368;BME280;23240;43.210;27.910;2023-06-14T04:53:13;100723.28;;;23.31;100.00
37368;BME280;23240;43.210;27.910;2023-06-14T04:55:38;100728.31;;;23.34;100.00
37368;BME280;23240;43.210;27.910;2023-06-14T04:58:04;100731.69;;;23.49;100.00
37368;BME280;23240;43.210;27.910;2023-06-14T05:00:30;100734.84;;;23.33;100.00
37368;BME280;23240;43.210;27.910;2023-06-14T05:02:55;100734.44;;;23.56;100.00
37368;BME280;23240;43.210;27.910;2023-06-14T05:05:22;100736.78;;;23.72;100.00
37368;BME280;23240;43.210;27.910;2023-06-14T05:07:47;100729.59;;;23.78;100.00
37368;BME280;23240;43.210;27.910;2023-06-14T05:10:13;100729.78;;;24.09;100.00
37368;BME280;23240;43.210;27.910;2023-06-14T05:12:38;100730.34;;;24.25;100.00
37368;BME280;23240;43.210;27.910;2023-06-14T05:15:03;100735.38;;;24.41;100.00
37368;BME280;23240;43.210;27.910;2023-06-14T05:17:29;100730.72;;;24.48;100.00
37368;BME280;23240;43.210;27.910;2023-06-14T05:19:55;100728.97;;;24.60;100.00
37368;BME280;23240;43.210;27.910;2023-06-14T05:22:21;100734.19;;;25.13;96.67
37368;BME280;23240;43.210;27.910;2023-06-14T05:24:46;100736.16;;;24.61;100.00
37368;BME280;23240;43.210;27.910;2023-06-14T05:27:13;100739.09;;;24.98;97.64
37368;BME280;23240;43.210;27.910;2023-06-14T05:29:38;100733.84;;;25.35;93.69
37368;BME280;23240;43.210;27.910;2023-06-14T05:32:04;100740.50;;;25.71;89.96
37368;BME280;23240;43.210;27.910;2023-06-14T05:34:29;100747.00;;;26.20;83.52
37368;BME280;23240;43.210;27.910;2023-06-14T05:36:54;100746.53;;;26.04;86.82
37368;BME280;23240;43.210;27.910;2023-06-14T05:39:20;100754.72;;;25.86;87.50
37368;BME280;23240;43.210;27.910;2023-06-14T05:41:45;100759.00;;;25.82;89.70
37368;BME280;23240;43.210;27.910;2023-06-14T05:44:11;100748.53;;;26.15;84.40
37368;BME280;23240;43.210;27.910;2023-06-14T05:46:36;100756.81;;;25.91;85.89
37368;BME280;23240;43.210;27.910;2023-06-14T05:49:01;100758.09;;;25.88;87.00
37368;BME280;23240;43.210;27.910;2023-06-14T05:51:27;100755.06;;;25.96;86.02
37368;BME280;23240;43.210;27.910;2023-06-14T05:53:52;100763.09;;;25.98;86.92
37368;BME280;23240;43.210;27.910;2023-06-14T05:56:18;100769.41;;;25.98;85.63
37368;BME280;23240;43.210;27.910;2023-06-14T05:58:43;100765.97;;;26.46;80.04
37368;BME280;23240;43.210;27.910;2023-06-14T06:01:09;100777.91;;;26.33;81.94
37368;BME280;23240;43.210;27.910;2023-06-14T06:03:34;100770.63;;;26.46;79.85
37368;BME280;23240;43.210;27.910;2023-06-14T06:05:59;100764.56;;;26.19;81.75
37368;BME280;23240;43.210;27.910;2023-06-14T06:08:25;100772.69;;;26.50;80.99
37368;BME280;23240;43.210;27.910;2023-06-14T06:10:51;100766.88;;;26.58;81.80
37368;BME280;23240;43.210;27.910;2023-06-14T06:13:16;100769.25;;;26.55;80.99
37368;BME280;23240;43.210;27.910;2023-06-14T06:15:41;100772.66;;;27.17;76.75
37368;BME280;23240;43.210;27.910;2023-06-14T06:18:07;100778.16;;;27.59;72.93
37368;BME280;23240;43.210;27.910;2023-06-14T06:20:32;100772.22;;;27.74;72.55
37368;BME280;23240;43.210;27.910;2023-06-14T06:22:58;100770.69;;;28.25;67.74
37368;BME280;23240;43.210;27.910;2023-06-14T06:25:24;100770.91;;;28.11;66.69
37368;BME280;23240;43.210;27.910;2023-06-14T06:27:50;100774.75;;;27.99;66.61
37368;BME280;23240;43.210;27.910;2023-06-14T06:30:16;100777.41;;;28.05;65.22
37368;BME280;23240;43.210;27.910;2023-06-14T06:32:41;100770.34;;;27.86;67.90
37368;BME280;23240;43.210;27.910;2023-06-14T06:35:07;100765.63;;;28.33;64.28
37368;BME280;23240;43.210;27.910;2023-06-14T06:37:33;100769.69;;;28.54;63.62
37368;BME280;23240;43.210;27.910;2023-06-14T06:39:59;100771.53;;;28.02;65.27
37368;BME280;23240;43.210;27.910;2023-06-14T06:42:25;100760.59;;;28.42;64.33
37368;BME280;23240;43.210;27.910;2023-06-14T06:44:50;100771.41;;;28.20;63.63
37368;BME280;23240;43.210;27.910;2023-06-14T06:47:15;100769.88;;;26.87;71.61
37368;BME280;23240;43.210;27.910;2023-06-14T06:49:41;100768.84;;;26.33;76.78
37368;BME280;23240;43.210;27.910;2023-06-14T06:52:06;100763.88;;;25.80;84.63
37368;BME280;23240;43.210;27.910;2023-06-14T06:54:32;100765.78;;;26.23;80.71
37368;BME280;23240;43.210;27.910;2023-06-14T06:56:58;100770.97;;;26.68;73.59
37368;BME280;23240;43.210;27.910;2023-06-14T06:59:23;100771.50;;;27.06;71.90
37368;BME280;23240;43.210;27.910;2023-06-14T07:01:48;100769.88;;;26.87;72.54
37368;BME280;23240;43.210;27.910;2023-06-14T07:04:14;100773.19;;;27.07;62.63
37368;BME280;23240;43.210;27.910;2023-06-14T07:06:39;100762.34;;;27.12;61.28
37368;BME280;23240;43.210;27.910;2023-06-14T07:09:05;100764.09;;;27.25;59.49
37368;BME280;23240;43.210;27.910;2023-06-14T07:11:33;100765.44;;;27.04;59.86
37368;BME280;23240;43.210;27.910;2023-06-14T07:13:58;100765.72;;;27.14;59.31
37368;BME280;23240;43.210;27.910;2023-06-14T07:16:23;100762.75;;;26.68;60.81
37368;BME280;23240;43.210;27.910;2023-06-14T07:18:49;100761.38;;;26.58;61.68
37368;BME280;23240;43.210;27.910;2023-06-14T07:21:14;100760.94;;;26.43;62.10
37368;BME280;23240;43.210;27.910;2023-06-14T07:23:39;100771.81;;;26.31;62.74
37368;BME280;23240;43.210;27.910;2023-06-14T07:26:05;100768.81;;;26.88;61.38
37368;BME280;23240;43.210;27.910;2023-06-14T07:28:30;100770.06;;;28.23;56.28
37368;BME280;23240;43.210;27.910;2023-06-14T07:30:55;100768.50;;;29.19;51.23
37368;BME280;23240;43.210;27.910;2023-06-14T07:33:21;100767.34;;;28.11;52.48
37368;BME280;23240;43.210;27.910;2023-06-14T07:35:46;100766.91;;;27.60;53.10
37368;BME280;23240;43.210;27.910;2023-06-14T07:38:13;100766.25;;;27.77;53.28
37368;BME280;23240;43.210;27.910;2023-06-14T07:40:38;100757.88;;;27.95;50.09
37368;BME280;23240;43.210;27.910;2023-06-14T07:43:03;100764.16;;;27.60;51.60
37368;BME280;23240;43.210;27.910;2023-06-14T07:45:29;100760.81;;;28.52;50.06
37368;BME280;23240;43.210;27.910;2023-06-14T07:47:54;100754.31;;;29.44;47.59
37368;BME280;23240;43.210;27.910;2023-06-14T07:50:20;100756.22;;;29.89;47.07
37368;BME280;23240;43.210;27.910;2023-06-14T07:52:45;100755.63;;;30.42;44.55
37368;BME280;23240;43.210;27.910;2023-06-14T07:55:12;100756.38;;;31.31;42.93
37368;BME280;23240;43.210;27.910;2023-06-14T07:57:37;100753.44;;;31.15;42.51
37368;BME280;23240;43.210;27.910;2023-06-14T08:00:02;100761.19;;;30.69;43.18
37368;BME280;23240;43.210;27.910;2023-06-14T08:02:31;100761.31;;;29.80;45.50
37368;BME280;23240;43.210;27.910;2023-06-14T08:04:56;100767.66;;;28.90;47.31
37368;BME280;23240;43.210;27.910;2023-06-14T08:07:22;100763.03;;;29.36;46.93
37368;BME280;23240;43.210;27.910;2023-06-14T08:09:47;100766.56;;;30.15;45.20
37368;BME280;23240;43.210;27.910;2023-06-14T08:12:13;100768.22;;;30.33;43.93
37368;BME280;23240;43.210;27.910;2023-06-14T08:14:39;100765.44;;;30.55;43.48
37368;BME280;23240;43.210;27.910;2023-06-14T08:17:04;100759.91;;;30.99;43.01
37368;BME280;23240;43.210;27.910;2023-06-14T08:19:30;100757.78;;;31.06;42.15
37368;BME280;23240;43.210;27.910;2023-06-14T08:21:56;100766.84;;;31.02;42.52
37368;BME280;23240;43.210;27.910;2023-06-14T08:24:21;100771.53;;;30.35;42.85
37368;BME280;23240;43.210;27.910;2023-06-14T08:26:49;100768.75;;;30.13;45.04
37368;BME280;23240;43.210;27.910;2023-06-14T08:29:15;100774.59;;;30.00;45.40
37368;BME280;23240;43.210;27.910;2023-06-14T08:31:40;100769.94;;;29.84;46.08
37368;BME280;23240;43.210;27.910;2023-06-14T08:34:05;100769.59;;;29.63;46.35
37368;BME280;23240;43.210;27.910;2023-06-14T08:36:31;100767.50;;;30.43;44.53
37368;BME280;23240;43.210;27.910;2023-06-14T08:38:56;100772.31;;;30.96;44.25
37368;BME280;23240;43.210;27.910;2023-06-14T08:41:22;100769.16;;;30.44;44.82
37368;BME280;23240;43.210;27.910;2023-06-14T08:43:49;100772.81;;;30.28;44.37
37368;BME280;23240;43.210;27.910;2023-06-14T08:46:14;100768.19;;;30.72;43.72
37368;BME280;23240;43.210;27.910;2023-06-14T08:48:44;100770.56;;;30.25;44.63
37368;BME280;23240;43.210;27.910;2023-06-14T08:51:10;100761.94;;;29.54;46.13
37368;BME280;23240;43.210;27.910;2023-06-14T08:53:36;100764.34;;;29.16;46.29
37368;BME280;23240;43.210;27.910;2023-06-14T08:56:07;100758.47;;;29.13;46.63
37368;BME280;23240;43.210;27.910;2023-06-14T08:58:42;100755.38;;;29.09;46.73
37368;BME280;23240;43.210;27.910;2023-06-14T09:01:10;100766.53;;;29.31;47.48
37368;BME280;23240;43.210;27.910;2023-06-14T09:03:39;100756.75;;;28.55;48.88
37368;BME280;23240;43.210;27.910;2023-06-14T09:06:05;100763.88;;;28.39;49.20
37368;BME280;23240;43.210;27.910;2023-06-14T09:08:33;100761.22;;;27.97;50.25
37368;BME280;23240;43.210;27.910;2023-06-14T09:11:00;100759.78;;;28.06;56.28
37368;BME280;23240;43.210;27.910;2023-06-14T09:13:26;100763.34;;;28.18;57.87
37368;BME280;23240;43.210;27.910;2023-06-14T09:15:51;100749.16;;;27.86;61.88
37368;BME280;23240;43.210;27.910;2023-06-14T09:18:17;100748.13;;;27.69;62.28
37368;BME280;23240;43.210;27.910;2023-06-14T09:20:42;100746.56;;;27.38;67.87
37368;BME280;23240;43.210;27.910;2023-06-14T09:23:08;100750.59;;;27.35;66.16
37368;BME280;23240;43.210;27.910;2023-06-14T09:25:43;100749.44;;;27.43;67.33
37368;BME280;23240;43.210;27.910;2023-06-14T09:28:11;100742.97;;;27.37;64.35
37368;BME280;23240;43.210;27.910;2023-06-14T09:30:37;100748.34;;;27.44;65.77
37368;BME280;23240;43.210;27.910;2023-06-14T09:33:02;100748.00;;;27.52;68.56
37368;BME280;23240;43.210;27.910;2023-06-14T09:35:28;100751.28;;;27.73;68.30
37368;BME280;23240;43.210;27.910;2023-06-14T09:37:56;100750.22;;;27.97;69.26
37368;BME280;23240;43.210;27.910;2023-06-14T09:40:21;100751.31;;;27.96;64.88
37368;BME280;23240;43.210;27.910;2023-06-14T09:42:47;100753.44;;;28.06;67.06
37368;BME280;23240;43.210;27.910;2023-06-14T09:45:12;100745.88;;;28.25;61.79
37368;BME280;23240;43.210;27.910;2023-06-14T09:47:39;100741.47;;;28.35;62.79
37368;BME280;23240;43.210;27.910;2023-06-14T09:50:05;100743.03;;;28.72;62.21
37368;BME280;23240;43.210;27.910;2023-06-14T09:52:31;100732.41;;;28.92;61.45
37368;BME280;23240;43.210;27.910;2023-06-14T09:54:56;100729.31;;;28.88;57.28
37368;BME280;23240;43.210;27.910;2023-06-14T09:57:24;100738.28;;;28.55;58.15
37368;BME280;23240;43.210;27.910;2023-06-14T09:59:56;100741.44;;;28.47;62.01
37368;BME280;23240;43.210;27.910;2023-06-14T10:04:54;100736.66;;;28.31;61.10
37368;BME280;23240;43.210;27.910;2023-06-14T10:07:22;100739.75;;;28.46;60.20
37368;BME280;23240;43.210;27.910;2023-06-14T10:09:51;100731.69;;;28.56;58.51
37368;BME280;23240;43.210;27.910;2023-06-14T10:12:17;100733.44;;;28.74;58.96
37368;BME280;23240;43.210;27.910;2023-06-14T10:14:50;100732.88;;;29.01;58.61
37368;BME280;23240;43.210;27.910;2023-06-14T10:17:20;100738.34;;;29.12;55.26
37368;BME280;23240;43.210;27.910;2023-06-14T10:19:48;100736.06;;;29.09;55.06
37368;BME280;23240;43.210;27.910;2023-06-14T10:22:18;100736.03;;;28.81;58.30
37368;BME280;23240;43.210;27.910;2023-06-14T10:24:45;100733.81;;;29.06;57.46
37368;BME280;23240;43.210;27.910;2023-06-14T10:27:14;100739.09;;;29.25;55.33
37368;BME280;23240;43.210;27.910;2023-06-14T10:32:21;100735.28;;;29.26;54.50
37368;BME280;23240;43.210;27.910;2023-06-14T10:34:53;100741.19;;;29.34;52.13
37368;BME280;23240;43.210;27.910;2023-06-14T10:37:19;100751.56;;;29.44;54.55
37368;BME280;23240;43.210;27.910;2023-06-14T10:39:45;100743.53;;;29.26;55.31
37368;BME280;23240;43.210;27.910;2023-06-14T10:42:14;100749.91;;;28.98;57.05
37368;BME280;23240;43.210;27.910;2023-06-14T10:44:40;100750.72;;;28.69;57.24
37368;BME280;23240;43.210;27.910;2023-06-14T10:47:10;100753.38;;;28.64;57.50
37368;BME280;23240;43.210;27.910;2023-06-14T10:49:37;100750.88;;;28.51;58.99
37368;BME280;23240;43.210;27.910;2023-06-14T10:52:13;100760.44;;;28.60;58.98
37368;BME280;23240;43.210;27.910;2023-06-14T10:57:21;100749.28;;;29.07;54.46
37368;BME280;23240;43.210;27.910;2023-06-14T10:59:46;100756.94;;;29.05;54.63
37368;BME280;23240;43.210;27.910;2023-06-14T11:04:55;100762.13;;;29.02;55.03
37368;BME280;23240;43.210;27.910;2023-06-14T11:10:09;100757.47;;;28.90;56.69
37368;BME280;23240;43.210;27.910;2023-06-14T11:12:35;100761.44;;;28.54;57.99
37368;BME280;23240;43.210;27.910;2023-06-14T11:15:02;100754.72;;;28.27;58.83
37368;BME280;23240;43.210;27.910;2023-06-14T11:17:28;100761.22;;;27.97;62.00
37368;BME280;23240;43.210;27.910;2023-06-14T11:20:10;100749.97;;;27.99;62.85
37368;BME280;23240;43.210;27.910;2023-06-14T11:22:43;100758.09;;;28.17;64.28
37368;BME280;23240;43.210;27.910;2023-06-14T11:25:09;100767.59;;;28.09;65.97
37368;BME280;23240;43.210;27.910;2023-06-14T11:27:35;100758.59;;;28.02;68.80
37368;BME280;23240;43.210;27.910;2023-06-14T11:30:00;100758.94;;;27.94;69.42
37368;BME280;23240;43.210;27.910;2023-06-14T11:32:25;100761.97;;;27.81;70.79
37368;BME280;23240;43.210;27.910;2023-06-14T11:34:51;100766.44;;;27.63;72.42
37368;BME280;23240;43.210;27.910;2023-06-14T11:37:16;100763.56;;;27.58;75.51
37368;BME280;23240;43.210;27.910;2023-06-14T11:39:45;100768.63;;;27.85;76.89
37368;BME280;23240;43.210;27.910;2023-06-14T11:42:16;100766.13;;;27.83;75.97
37368;BME280;23240;43.210;27.910;2023-06-14T11:44:41;100773.16;;;27.67;77.64
37368;BME280;23240;43.210;27.910;2023-06-14T11:47:07;100778.53;;;27.62;81.08
37368;BME280;23240;43.210;27.910;2023-06-14T11:49:35;100775.66;;;27.57;81.04
37368;BME280;23240;43.210;27.910;2023-06-14T11:52:01;100774.31;;;27.48;80.31
37368;BME280;23240;43.210;27.910;2023-06-14T11:54:26;100780.00;;;27.35;82.91
37368;BME280;23240;43.210;27.910;2023-06-14T11:56:52;100773.03;;;27.21;86.38
37368;BME280;23240;43.210;27.910;2023-06-14T11:59:17;100772.72;;;27.29;85.69
37368;BME280;23240;43.210;27.910;2023-06-14T12:01:43;100772.47;;;27.00;91.62
37368;BME280;23240;43.210;27.910;2023-06-14T12:04:08;100777.97;;;26.82;93.45
37368;BME280;23240;43.210;27.910;2023-06-14T12:06:33;100773.03;;;26.72;95.15
37368;BME280;23240;43.210;27.910;2023-06-14T12:09:04;100771.13;;;26.73;96.02
37368;BME280;23240;43.210;27.910;2023-06-14T12:11:32;100765.56;;;26.79;92.05
37368;BME280;23240;43.210;27.910;2023-06-14T12:13:58;100771.28;;;26.78;91.62
37368;BME280;23240;43.210;27.910;2023-06-14T12:16:29;100774.00;;;26.78;90.48
37368;BME280;23240;43.210;27.910;2023-06-14T12:18:55;100770.53;;;26.52;93.12
37368;BME280;23240;43.210;27.910;2023-06-14T12:21:22;100762.34;;;26.64;94.10
37368;BME280;23240;43.210;27.910;2023-06-14T12:23:48;100767.41;;;26.67;100.00
37368;BME280;23240;43.210;27.910;2023-06-14T12:26:18;100773.88;;;26.54;100.00
37368;BME280;23240;43.210;27.910;2023-06-14T12:28:44;100776.16;;;26.39;100.00
37368;BME280;23240;43.210;27.910;2023-06-14T12:31:13;100765.69;;;26.29;100.00
37368;BME280;23240;43.210;27.910;2023-06-14T12:33:39;100760.09;;;26.43;100.00
37368;BME280;23240;43.210;27.910;2023-06-14T12:36:09;100766.72;;;26.53;100.00
37368;BME280;23240;43.210;27.910;2023-06-14T12:38:35;100755.41;;;26.06;100.00
37368;BME280;23240;43.210;27.910;2023-06-14T12:41:01;100757.63;;;25.91;100.00
37368;BME280;23240;43.210;27.910;2023-06-14T12:43:26;100763.28;;;25.71;100.00